createdAt,value
2018-04-28T00:02:51.430Z,6.97
2018-04-28T00:05:53.492Z,5.80
2018-04-28T00:08:55.617Z,6.20
2018-04-28T00:11:57.697Z,6.30
2018-04-28T00:14:59.826Z,6.17
2018-04-28T00:18:01.884Z,6.13
2018-04-28T00:21:03.929Z,6.70
2018-04-28T00:24:06.826Z,7.90
2018-04-28T00:27:14.512Z,6.43
2018-04-28T00:30:24.875Z,6.57
2018-04-28T00:33:42.609Z,7.33
2018-04-28T00:40:41.141Z,6.37
2018-04-28T00:43:43.220Z,6.60
2018-04-28T00:47:00.920Z,6.83
2018-04-28T00:50:10.617Z,6.03
2018-04-28T00:53:12.647Z,7.80
2018-04-28T00:56:16.301Z,7.00
2018-04-28T00:59:20.197Z,6.03
2018-04-28T01:02:24.175Z,5.70
2018-04-28T01:05:42.786Z,5.77
2018-04-28T01:08:44.885Z,5.70
2018-04-28T01:11:47.104Z,7.20
2018-04-28T01:14:49.373Z,6.67
2018-04-28T01:17:56.719Z,6.33
2018-04-28T01:21:01.649Z,6.17
2018-04-28T01:24:06.156Z,6.00
2018-04-28T01:27:27.791Z,7.40
2018-04-28T01:30:29.918Z,6.00
2018-04-28T01:33:54.321Z,5.80
2018-04-28T01:37:18.165Z,8.13
2018-04-28T01:40:22.964Z,6.50
2018-04-28T01:43:41.530Z,6.80
2018-04-28T01:46:59.171Z,5.97
2018-04-28T01:50:02.165Z,6.40
2018-04-28T01:53:04.312Z,5.97
2018-04-28T01:56:16.293Z,6.77
2018-04-28T01:59:26.171Z,7.23
2018-04-28T02:02:39.084Z,7.40
2018-04-28T02:05:45.747Z,6.70
2018-04-28T02:08:52.563Z,6.60
2018-04-28T02:12:10.205Z,6.83
2018-04-28T02:15:13.165Z,5.97
2018-04-28T02:18:21.287Z,6.17
2018-04-28T02:21:29.843Z,7.00
2018-04-28T02:28:18.701Z,6.43
2018-04-28T02:31:23.736Z,7.17
2018-04-28T02:34:45.660Z,7.60
2018-04-28T02:37:48.490Z,6.07
2018-04-28T02:41:05.354Z,5.80
2018-04-28T02:44:08.928Z,6.10
2018-04-28T02:47:15.870Z,6.63
2018-04-28T02:50:21.657Z,6.53
2018-04-28T02:53:24.687Z,5.90
2018-04-28T02:56:29.421Z,5.87
2018-04-28T03:03:22.268Z,7.20
2018-04-28T03:06:27.795Z,6.97
2018-04-28T03:09:29.910Z,7.00
2018-04-28T03:12:32.688Z,6.60
2018-04-28T03:15:34.749Z,7.63
2018-04-28T03:18:36.862Z,7.07
2018-04-28T03:21:43.602Z,6.33
2018-04-28T03:24:53.373Z,7.50
2018-04-28T03:28:32.821Z,6.70
2018-04-28T03:31:38.502Z,7.40
2018-04-28T03:34:44.391Z,8.70
2018-04-28T03:38:07.185Z,6.70
2018-04-28T03:41:16.962Z,6.30
2018-04-28T03:44:49.480Z,6.63
2018-04-28T03:48:01.052Z,6.60
2018-04-28T03:51:09.801Z,6.77
2018-04-28T03:54:15.591Z,8.53
2018-04-28T03:57:38.315Z,7.40
2018-04-28T04:00:52.064Z,7.43
2018-04-28T04:04:00.808Z,7.45
2018-04-28T04:07:24.400Z,7.07
2018-04-28T04:10:30.181Z,6.40
2018-04-28T04:13:45.155Z,6.90
2018-04-28T04:16:56.961Z,6.40
2018-04-28T04:23:31.942Z,6.93
2018-04-28T04:26:47.507Z,6.83
2018-04-28T04:33:35.436Z,7.97
2018-04-28T04:36:49.590Z,7.70
2018-04-28T04:43:43.698Z,7.13
2018-04-28T04:46:57.248Z,8.03
2018-04-28T04:50:07.211Z,7.90
2018-04-28T04:53:19.826Z,7.97
2018-04-28T04:56:35.333Z,7.40
2018-04-28T04:59:44.144Z,7.43
2018-04-28T05:06:28.907Z,6.40
2018-04-28T05:09:41.397Z,5.77
2018-04-28T05:12:55.340Z,5.87
2018-04-28T05:15:58.103Z,5.37
2018-04-28T05:22:43.099Z,6.03
2018-04-28T05:25:49.966Z,5.10
2018-04-28T05:32:50.291Z,5.07
2018-04-28T05:35:58.212Z,5.57
2018-04-28T05:39:08.158Z,6.20
2018-04-28T05:46:08.458Z,6.40
2018-04-28T05:49:21.445Z,5.93
2018-04-28T05:52:44.211Z,7.27
2018-04-28T05:56:05.713Z,7.57
2018-04-28T05:59:22.331Z,6.57
2018-04-28T06:02:29.422Z,7.50
2018-04-28T06:05:58.785Z,7.40
2018-04-28T06:09:04.784Z,8.53
2018-04-28T06:12:17.700Z,7.83
2018-04-28T06:15:37.507Z,8.17
2018-04-28T06:22:07.806Z,7.53
2018-04-28T06:25:10.831Z,9.70
2018-04-28T06:28:13.599Z,8.97
2018-04-28T06:31:15.644Z,9.37
2018-04-28T06:34:17.650Z,7.97
2018-04-28T06:37:19.852Z,7.87
2018-04-28T06:40:21.877Z,9.23
2018-04-28T06:43:23.879Z,8.80
2018-04-28T06:46:26.013Z,9.67
2018-04-28T06:49:28.132Z,9.40
2018-04-28T06:52:30.310Z,7.70
2018-04-28T06:55:32.331Z,6.93
2018-04-28T06:58:34.507Z,7.27
2018-04-28T07:01:36.522Z,6.97
2018-04-28T07:04:38.551Z,7.20
2018-04-28T07:07:40.600Z,6.40
2018-04-28T07:10:42.589Z,5.90
2018-04-28T07:13:44.805Z,6.57
2018-04-28T07:16:46.815Z,5.60
2018-04-28T07:19:49.783Z,6.80
2018-04-28T07:22:51.821Z,6.05
2018-04-28T07:25:53.854Z,6.25
2018-04-28T07:28:55.867Z,5.95
2018-04-28T07:31:57.936Z,5.75
2018-04-28T07:34:59.987Z,6.30
2018-04-28T07:38:02.058Z,6.57
2018-04-28T07:41:04.095Z,7.28
2018-04-28T07:44:06.103Z,7.43
2018-04-28T07:47:08.573Z,7.45
2018-04-28T07:50:10.656Z,7.05
2018-04-28T07:53:12.677Z,6.95
2018-04-28T07:56:14.747Z,6.90
2018-04-28T07:59:16.807Z,6.00
2018-04-28T08:02:18.815Z,7.50
2018-04-28T08:05:20.844Z,6.87
2018-04-28T08:08:23.137Z,7.18
2018-04-28T08:11:25.917Z,6.28
2018-04-28T08:14:28.078Z,6.62
2018-04-28T08:17:30.114Z,6.60
2018-04-28T08:20:32.101Z,7.62
2018-04-28T08:23:34.318Z,6.60
2018-04-28T08:26:36.496Z,6.72
2018-04-28T08:29:38.784Z,6.32
2018-04-28T08:32:40.806Z,5.93
2018-04-28T08:35:44.339Z,5.70
2018-04-28T08:38:46.385Z,5.55
2018-04-28T08:41:48.373Z,5.00
2018-04-28T08:44:51.147Z,5.60
2018-04-28T08:47:53.180Z,5.75
2018-04-28T08:50:55.188Z,5.50
2018-04-28T08:53:58.009Z,6.70
2018-04-28T08:57:00.047Z,6.40
2018-04-28T09:00:13.896Z,5.93
2018-04-28T09:03:16.681Z,5.40
2018-04-28T09:06:18.690Z,5.60
2018-04-28T09:09:21.756Z,5.50
2018-04-28T09:12:23.822Z,5.68
2018-04-28T09:15:25.820Z,5.70
2018-04-28T09:18:27.836Z,5.65
2018-04-28T09:21:30.633Z,5.72
2018-04-28T09:24:33.419Z,5.65
2018-04-28T09:27:35.432Z,5.57
2018-04-28T09:30:37.558Z,5.87
2018-04-28T09:33:39.579Z,5.68
2018-04-28T09:36:41.848Z,6.50
2018-04-28T09:39:43.884Z,5.30
2018-04-28T09:42:45.905Z,5.07
2018-04-28T09:45:47.900Z,6.65
2018-04-28T09:48:49.940Z,5.35
2018-04-28T09:51:52.263Z,5.87
2018-04-28T09:54:54.387Z,5.28
2018-04-28T09:58:05.128Z,5.72
2018-04-28T10:01:07.119Z,5.35
2018-04-28T10:04:09.130Z,5.40
2018-04-28T10:07:11.160Z,5.65
2018-04-28T10:10:14.673Z,5.70
2018-04-28T10:13:16.671Z,5.55
2018-04-28T10:16:19.447Z,5.32
2018-04-28T10:19:21.497Z,5.18
2018-04-28T10:22:23.523Z,4.72
2018-04-28T10:25:25.567Z,5.03
2018-04-28T10:28:27.613Z,5.70
2018-04-28T10:31:29.724Z,4.72
2018-04-28T10:34:31.803Z,5.07
2018-04-28T10:37:33.851Z,5.05
2018-04-28T10:40:35.874Z,5.10
2018-04-28T10:43:37.871Z,5.80
2018-04-28T10:46:39.891Z,5.28
2018-04-28T10:49:41.888Z,4.12
2018-04-28T10:52:43.934Z,5.50
2018-04-28T10:55:45.931Z,4.57
2018-04-28T10:58:48.238Z,6.47
2018-04-28T11:01:50.358Z,5.32
2018-04-28T11:04:52.358Z,4.95
2018-04-28T11:07:54.365Z,4.70
2018-04-28T11:10:56.561Z,4.30
2018-04-28T11:13:58.559Z,5.15
2018-04-28T11:17:00.562Z,4.68
2018-04-28T11:20:02.562Z,4.43
2018-04-28T11:23:04.577Z,5.03
2018-04-28T11:26:06.581Z,5.82
2018-04-28T11:29:08.602Z,5.22
2018-04-28T11:32:11.359Z,4.68
2018-04-28T11:35:13.403Z,4.90
2018-04-28T11:38:15.414Z,4.82
2018-04-28T11:41:17.413Z,5.50
2018-04-28T11:44:19.423Z,5.10
2018-04-28T11:47:21.417Z,5.05
2018-04-28T11:50:23.449Z,5.07
2018-04-28T11:53:25.488Z,5.78
2018-04-28T11:56:28.221Z,5.45
2018-04-28T11:59:30.225Z,5.35
2018-04-28T12:02:32.293Z,4.20
2018-04-28T12:05:35.783Z,5.05
2018-04-28T12:08:37.823Z,5.55
2018-04-28T12:11:39.833Z,6.10
2018-04-28T12:14:42.605Z,5.55
2018-04-28T12:17:44.605Z,5.12
2018-04-28T12:20:46.612Z,5.32
2018-04-28T12:23:48.641Z,4.82
2018-04-28T12:26:50.727Z,5.05
2018-04-28T12:29:52.860Z,5.80
2018-04-28T12:32:54.796Z,5.35
2018-04-28T12:35:56.845Z,5.85
2018-04-28T12:38:58.857Z,5.18
2018-04-28T12:42:00.852Z,5.18
2018-04-28T12:45:02.902Z,5.00
2018-04-28T12:48:04.905Z,5.60
2018-04-28T12:51:06.932Z,5.62
2018-04-28T12:54:09.694Z,5.50
2018-04-28T12:57:11.698Z,5.60
2018-04-28T13:00:14.463Z,6.68
2018-04-28T13:03:17.436Z,5.78
2018-04-28T13:06:19.437Z,6.30
2018-04-28T13:09:21.447Z,6.27
2018-04-28T13:12:23.479Z,5.90
2018-04-28T13:15:25.482Z,6.90
2018-04-28T13:18:27.541Z,5.97
2018-04-28T13:21:29.563Z,5.57
2018-04-28T13:24:31.749Z,6.30
2018-04-28T13:27:33.789Z,7.33
2018-04-28T13:30:35.881Z,5.97
2018-04-28T13:33:37.895Z,6.37
2018-04-28T13:36:40.005Z,7.10
2018-04-28T13:39:41.997Z,5.77
2018-04-28T13:42:44.780Z,6.60
2018-04-28T13:45:46.777Z,8.13
2018-04-28T13:48:48.800Z,8.00
2018-04-28T13:51:50.805Z,7.00
2018-04-28T13:54:52.879Z,6.23
2018-04-28T13:57:54.899Z,6.47
2018-04-28T14:00:56.918Z,6.83
2018-04-28T14:03:58.919Z,6.10
2018-04-28T14:07:00.999Z,6.00
2018-04-28T14:10:03.041Z,5.70
2018-04-28T14:13:05.047Z,5.70
2018-04-28T14:16:07.041Z,5.70
2018-04-28T14:19:09.831Z,5.30
2018-04-28T14:22:11.825Z,6.30
2018-04-28T14:25:13.840Z,6.00
2018-04-28T14:28:15.871Z,6.20
2018-04-28T14:31:17.945Z,5.70
2018-04-28T14:34:19.954Z,5.67
2018-04-28T14:37:22.003Z,5.00
2018-04-28T14:40:23.993Z,5.43
2018-04-28T14:43:26.000Z,6.53
2018-04-28T14:46:28.002Z,5.97
2018-04-28T14:49:30.018Z,5.03
2018-04-28T14:52:32.118Z,6.40
2018-04-28T14:55:34.102Z,6.20
2018-04-28T14:58:36.141Z,7.00
2018-04-28T15:01:38.205Z,5.60
2018-04-28T15:04:40.241Z,5.43
2018-04-28T15:07:42.216Z,5.30
2018-04-28T15:10:44.239Z,6.13
2018-04-28T15:13:46.570Z,6.07
2018-04-28T15:16:48.775Z,6.27
2018-04-28T15:19:50.712Z,6.73
2018-04-28T15:22:52.788Z,6.70
2018-04-28T15:25:54.730Z,6.53
2018-04-28T15:28:56.748Z,5.83
2018-04-28T15:31:58.800Z,6.13
2018-04-28T15:35:00.903Z,5.97
2018-04-28T15:38:02.833Z,6.20
2018-04-28T15:41:04.866Z,5.83
2018-04-28T15:44:06.895Z,6.03
2018-04-28T15:47:08.928Z,5.90
2018-04-28T15:50:10.961Z,6.10
2018-04-28T15:53:13.586Z,6.30
2018-04-28T15:56:15.650Z,6.50
2018-04-28T15:59:18.645Z,6.73
2018-04-28T16:02:20.649Z,5.80
2018-04-28T16:05:22.649Z,6.50
2018-04-28T16:08:26.157Z,6.17
2018-04-28T16:11:28.259Z,7.07
2018-04-28T16:14:30.272Z,4.97
2018-04-28T16:17:32.400Z,6.00
2018-04-28T16:20:34.591Z,5.77
2018-04-28T16:23:36.637Z,6.13
2018-04-28T16:26:38.695Z,6.23
2018-04-28T16:29:41.481Z,5.70
2018-04-28T16:32:43.661Z,7.23
2018-04-28T16:35:45.887Z,6.07
2018-04-28T16:38:47.878Z,5.80
2018-04-28T16:41:49.879Z,5.40
2018-04-28T16:44:51.886Z,4.50
2018-04-28T16:47:53.899Z,6.20
2018-04-28T16:50:55.931Z,6.50
2018-04-28T16:53:57.958Z,5.00
2018-04-28T16:56:59.936Z,5.10
2018-04-28T17:00:02.791Z,5.07
2018-04-28T17:03:04.795Z,3.90
2018-04-28T17:06:06.798Z,5.23
2018-04-28T17:09:08.814Z,4.67
2018-04-28T17:12:10.982Z,4.03
2018-04-28T17:15:12.996Z,4.90
2018-04-28T17:18:15.016Z,4.97
2018-04-28T17:21:17.005Z,4.40
2018-04-28T17:24:19.018Z,4.67
2018-04-28T17:27:21.045Z,5.13
2018-04-28T17:30:23.086Z,5.80
2018-04-28T17:33:25.103Z,4.23
2018-04-28T17:36:27.097Z,4.80
2018-04-28T17:39:29.126Z,4.30
2018-04-28T17:42:31.110Z,4.83
2018-04-28T17:45:33.120Z,4.53
2018-04-28T17:48:35.876Z,5.00
2018-04-28T17:51:39.393Z,4.57
2018-04-28T17:54:41.378Z,5.40
2018-04-28T17:57:44.199Z,5.20
2018-04-28T18:00:46.205Z,5.63
2018-04-28T18:03:48.922Z,5.57
2018-04-28T18:06:51.057Z,5.57
2018-04-28T18:09:53.886Z,5.90
2018-04-28T18:12:55.887Z,5.87
2018-04-28T18:19:29.215Z,5.60
2018-04-28T18:22:31.978Z,6.50
2018-04-28T18:25:34.097Z,5.23
2018-04-28T18:28:36.191Z,5.03
2018-04-28T18:31:38.190Z,5.30
2018-04-28T18:34:40.188Z,5.77
2018-04-28T18:37:43.021Z,5.07
2018-04-28T18:40:45.035Z,5.80
2018-04-28T18:43:47.051Z,6.47
2018-04-28T18:46:49.051Z,5.70
2018-04-28T18:49:51.075Z,6.03
2018-04-28T18:52:53.068Z,6.13
2018-04-28T18:55:55.084Z,6.40
2018-04-28T18:58:57.843Z,6.50
2018-04-28T19:01:59.850Z,5.23
2018-04-28T19:05:02.011Z,5.80
2018-04-28T19:08:04.107Z,5.70
2018-04-28T19:11:06.133Z,6.83
2018-04-28T19:14:08.211Z,5.60
2018-04-28T19:17:10.205Z,6.10
2018-04-28T19:20:12.244Z,5.77
2018-04-28T19:23:15.013Z,5.10
2018-04-28T19:26:16.998Z,5.00
2018-04-28T19:29:19.848Z,6.40
2018-04-28T19:32:21.874Z,6.10
2018-04-28T19:35:23.949Z,6.33
2018-04-28T19:38:26.224Z,5.57
2018-04-28T19:41:28.241Z,7.00
2018-04-28T19:44:30.251Z,6.60
2018-04-28T19:47:33.029Z,6.50
2018-04-28T19:50:35.079Z,6.50
2018-04-28T19:53:37.084Z,7.77
2018-04-28T19:56:39.097Z,6.60
2018-04-28T19:59:41.105Z,7.33
2018-04-28T20:02:43.108Z,6.13
2018-04-28T20:05:45.121Z,7.63
2018-04-28T20:08:47.137Z,7.53
2018-04-28T20:11:49.183Z,8.40
2018-04-28T20:14:51.184Z,6.90
2018-04-28T20:17:53.272Z,5.13
2018-04-28T20:20:55.234Z,5.50
2018-04-28T20:24:09.103Z,6.53
2018-04-28T20:27:11.108Z,5.70
2018-04-28T20:30:13.192Z,7.53
2018-04-28T20:33:15.227Z,6.60
2018-04-28T20:36:18.016Z,5.70
2018-04-28T20:39:20.028Z,6.40
2018-04-28T20:42:22.071Z,7.27
2018-04-28T20:45:24.095Z,6.57
2018-04-28T20:48:26.119Z,6.07
2018-04-28T20:51:28.278Z,5.27
2018-04-28T20:54:30.315Z,6.07
2018-04-28T20:57:33.086Z,6.50
2018-04-28T21:00:35.085Z,5.73
2018-04-28T21:03:37.846Z,6.37
2018-04-28T21:06:39.866Z,6.10
2018-04-28T21:09:41.847Z,6.33
2018-04-28T21:12:44.100Z,5.80
2018-04-28T21:15:46.126Z,6.63
2018-04-28T21:18:49.650Z,6.17
2018-04-28T21:21:51.637Z,6.13
2018-04-28T21:24:53.805Z,5.70
2018-04-28T21:27:55.843Z,6.17
2018-04-28T21:30:58.618Z,5.50
2018-04-28T21:34:01.336Z,6.75
2018-04-28T21:37:04.157Z,7.37
2018-04-28T21:40:06.265Z,5.77
2018-04-28T21:43:08.272Z,5.70
2018-04-28T21:46:10.258Z,6.77
2018-04-28T21:49:12.476Z,6.60
2018-04-28T21:52:14.473Z,6.17
2018-04-28T21:55:16.527Z,6.60
2018-04-28T21:58:18.528Z,6.30
2018-04-28T22:01:20.526Z,6.53
2018-04-28T22:04:22.544Z,5.50
2018-04-28T22:07:24.628Z,6.83
2018-04-28T22:10:26.788Z,6.20
2018-04-28T22:13:29.586Z,6.80
2018-04-28T22:16:31.596Z,5.97
2018-04-28T22:19:33.594Z,6.90
2018-04-28T22:22:36.406Z,7.00
2018-04-28T22:25:38.442Z,6.27
2018-04-28T22:28:40.469Z,6.97
2018-04-28T22:31:42.464Z,6.50
2018-04-28T22:34:44.497Z,6.17
2018-04-28T22:37:46.487Z,5.73
2018-04-28T22:40:48.510Z,6.70
2018-04-28T22:43:50.507Z,6.57
2018-04-28T22:46:52.527Z,6.43
2018-04-28T22:49:54.516Z,6.80
2018-04-28T22:52:56.545Z,7.67
2018-04-28T22:55:58.542Z,6.90
2018-04-28T22:59:00.546Z,5.63
2018-04-28T23:02:02.596Z,6.67
2018-04-28T23:05:04.629Z,4.93
2018-04-28T23:08:06.651Z,5.67
2018-04-28T23:11:08.648Z,7.30
2018-04-28T23:14:10.709Z,5.80
2018-04-28T23:17:12.687Z,5.87
2018-04-28T23:20:14.866Z,5.50
2018-04-28T23:23:16.880Z,6.77
2018-04-28T23:26:18.880Z,5.63
2018-04-28T23:29:20.866Z,5.43
2018-04-28T23:32:22.894Z,5.30
2018-04-28T23:35:24.872Z,5.73
2018-04-28T23:38:26.882Z,5.57
2018-04-28T23:41:28.908Z,5.60
2018-04-28T23:44:31.145Z,5.93
2018-04-28T23:47:33.930Z,5.53
2018-04-28T23:50:36.192Z,5.30
2018-04-28T23:53:38.219Z,6.13
2018-04-28T23:56:40.251Z,5.70
2018-04-28T23:59:42.346Z,6.70
